createdAt,value
2022-09-16T00:01:15.041Z,568.58
2022-09-16T00:03:43.730Z,585.33
2022-09-16T00:06:28.351Z,564.70
2022-09-16T00:09:03.532Z,566.92
2022-09-16T00:11:34.575Z,567.83
2022-09-16T00:14:03.542Z,565.40
2022-09-16T00:16:32.389Z,575.00
2022-09-16T00:19:01.047Z,574.05
2022-09-16T00:21:29.947Z,567.03
2022-09-16T00:23:58.260Z,570.25
2022-09-16T00:26:26.580Z,568.95
2022-09-16T00:28:54.669Z,566.45
2022-09-16T00:31:22.854Z,573.17
2022-09-16T00:33:50.945Z,568.13
2022-09-16T00:36:20.552Z,572.25
2022-09-16T00:38:57.545Z,589.78
2022-09-16T00:41:33.337Z,573.60
2022-09-16T00:44:04.939Z,558.83
2022-09-16T00:46:38.293Z,564.17
2022-09-16T00:49:31.370Z,577.05
2022-09-16T00:52:06.014Z,562.28
2022-09-16T00:54:38.005Z,562.97
2022-09-16T00:57:08.334Z,578.03
2022-09-16T00:59:44.299Z,566.95
2022-09-16T01:02:16.872Z,556.97
2022-09-16T01:05:07.246Z,555.08
2022-09-16T01:07:55.377Z,548.78
2022-09-16T01:10:26.342Z,545.97
2022-09-16T01:13:14.910Z,551.03
2022-09-16T01:16:19.012Z,548.95
2022-09-16T01:18:47.240Z,530.17
2022-09-16T01:22:14.840Z,547.58
2022-09-16T01:24:52.276Z,542.00
2022-09-16T01:27:54.203Z,540.15
2022-09-16T01:31:25.683Z,529.30
2022-09-16T01:34:28.407Z,539.60
2022-09-16T01:37:08.862Z,533.65
2022-09-16T01:40:12.109Z,545.97
2022-09-16T01:43:19.904Z,545.72
2022-09-16T01:46:19.695Z,537.30
2022-09-16T01:48:58.887Z,538.90
2022-09-16T01:51:41.982Z,544.55
2022-09-16T01:54:40.117Z,544.03
2022-09-16T01:57:18.394Z,542.05
2022-09-16T02:00:04.061Z,542.33
2022-09-16T02:03:00.217Z,548.08
2022-09-16T02:05:39.893Z,543.55
2022-09-16T02:08:13.625Z,557.40
2022-09-16T02:10:48.028Z,537.75
2022-09-16T02:13:37.793Z,541.60
2022-09-16T02:16:11.710Z,533.67
2022-09-16T02:18:42.443Z,550.22
2022-09-16T02:21:14.705Z,573.05
2022-09-16T02:23:51.987Z,539.15
2022-09-16T02:26:26.525Z,529.88
2022-09-16T02:28:56.247Z,540.58
2022-09-16T02:31:34.117Z,542.75
2022-09-16T02:34:11.650Z,546.72
2022-09-16T02:36:41.790Z,550.70
2022-09-16T02:39:16.304Z,540.83
2022-09-16T02:41:44.356Z,545.63
2022-09-16T02:44:12.774Z,552.40
2022-09-16T02:47:13.977Z,539.00
2022-09-16T02:50:09.201Z,544.15
2022-09-16T02:53:01.797Z,533.92
2022-09-16T02:56:06.694Z,538.88
2022-09-16T02:58:35.412Z,520.08
2022-09-16T03:01:03.721Z,522.97
2022-09-16T03:03:31.914Z,553.08
2022-09-16T03:06:27.026Z,539.20
2022-09-16T03:08:59.719Z,535.30
2022-09-16T03:11:45.632Z,532.35
2022-09-16T03:14:32.480Z,524.60
2022-09-16T03:17:27.980Z,523.42
2022-09-16T03:20:30.154Z,541.08
2022-09-16T03:23:39.141Z,527.20
2022-09-16T03:26:25.392Z,527.17
2022-09-16T03:29:23.237Z,533.80
2022-09-16T03:32:08.492Z,536.20
2022-09-16T03:34:36.611Z,529.15
2022-09-16T03:37:11.066Z,535.58
2022-09-16T03:40:01.568Z,545.47
2022-09-16T03:42:33.038Z,538.20
2022-09-16T03:45:18.914Z,538.78
2022-09-16T03:47:59.165Z,541.55
2022-09-16T03:50:47.622Z,534.35
2022-09-16T03:53:28.078Z,544.40
2022-09-16T03:55:56.298Z,540.30
2022-09-16T03:58:24.423Z,541.00
2022-09-16T04:00:53.936Z,542.38
2022-09-16T04:03:22.349Z,551.47
2022-09-16T04:06:06.491Z,549.47
2022-09-16T04:08:56.074Z,567.70
2022-09-16T04:11:45.535Z,567.85
2022-09-16T04:14:29.823Z,548.83
2022-09-16T04:17:19.738Z,551.25
2022-09-16T04:19:59.898Z,538.33
2022-09-16T04:22:44.783Z,557.65
2022-09-16T04:25:32.076Z,549.90
2022-09-16T04:28:22.513Z,555.65
2022-09-16T04:31:28.797Z,540.88
2022-09-16T04:34:15.195Z,543.72
2022-09-16T04:36:49.658Z,539.70
2022-09-16T04:39:17.859Z,540.50
2022-09-16T04:41:46.116Z,544.38
2022-09-16T04:44:15.388Z,549.75
2022-09-16T04:46:43.647Z,549.38
2022-09-16T04:49:13.050Z,550.20
2022-09-16T04:51:41.065Z,553.85
2022-09-16T04:54:09.577Z,551.70
2022-09-16T04:56:38.043Z,551.97
2022-09-16T04:59:06.685Z,542.33
2022-09-16T05:01:39.017Z,551.53
2022-09-16T05:04:10.002Z,539.63
2022-09-16T05:06:41.833Z,556.63
2022-09-16T05:09:12.385Z,544.40
2022-09-16T05:11:41.733Z,539.92
2022-09-16T05:14:18.268Z,545.10
2022-09-16T05:16:46.862Z,544.63
2022-09-16T05:19:16.274Z,533.63
2022-09-16T05:21:44.725Z,553.40
2022-09-16T05:24:16.718Z,537.88
2022-09-16T05:26:45.754Z,525.17
2022-09-16T05:29:16.538Z,533.08
2022-09-16T05:31:48.687Z,528.40
2022-09-16T05:34:28.875Z,537.55
2022-09-16T05:36:57.273Z,529.92
2022-09-16T05:39:26.396Z,533.88
2022-09-16T05:41:58.204Z,529.15
2022-09-16T05:44:27.495Z,537.10
2022-09-16T05:46:56.062Z,532.35
2022-09-16T05:49:24.473Z,535.47
2022-09-16T05:51:53.132Z,530.65
2022-09-16T05:54:23.848Z,533.40
2022-09-16T05:56:52.382Z,538.67
2022-09-16T05:59:20.889Z,536.47
2022-09-16T06:01:49.146Z,543.88
2022-09-16T06:04:17.298Z,542.85
2022-09-16T06:06:47.128Z,535.72
2022-09-16T06:09:19.615Z,536.97
2022-09-16T06:11:51.974Z,535.03
2022-09-16T06:14:22.833Z,545.38
2022-09-16T06:16:50.938Z,547.35
2022-09-16T06:19:20.639Z,538.90
2022-09-16T06:21:48.764Z,536.13
2022-09-16T06:24:18.334Z,548.42
2022-09-16T06:26:47.913Z,540.35
2022-09-16T06:29:17.670Z,538.47
2022-09-16T06:31:45.938Z,553.30
2022-09-16T06:34:18.644Z,546.95
2022-09-16T06:36:47.383Z,548.75
2022-09-16T06:39:17.412Z,545.20
2022-09-16T06:41:46.290Z,560.17
2022-09-16T06:44:14.652Z,557.42
2022-09-16T06:46:44.249Z,564.00
2022-09-16T06:49:13.243Z,575.92
2022-09-16T06:51:41.520Z,567.53
2022-09-16T06:54:10.417Z,571.10
2022-09-16T06:56:39.841Z,573.42
2022-09-16T06:59:08.712Z,570.83
2022-09-16T07:01:37.388Z,588.90
2022-09-16T07:04:13.798Z,585.03
2022-09-16T07:07:08.050Z,584.10
2022-09-16T07:09:30.911Z,590.05
2022-09-16T07:11:59.511Z,587.53
2022-09-16T07:14:28.877Z,600.67
2022-09-16T07:16:57.197Z,587.55
2022-09-16T07:19:26.320Z,599.60
2022-09-16T07:21:55.115Z,601.35
2022-09-16T07:24:23.402Z,602.47
2022-09-16T07:26:51.688Z,601.47
2022-09-16T07:29:21.024Z,606.60
2022-09-16T07:31:49.325Z,593.40
2022-09-16T07:34:17.667Z,601.33
2022-09-16T07:36:48.412Z,603.95
2022-09-16T07:39:18.994Z,610.03
2022-09-16T07:41:50.959Z,603.85
2022-09-16T07:44:20.828Z,601.40
2022-09-16T07:46:51.323Z,610.17
2022-09-16T07:49:20.134Z,612.88
2022-09-16T07:51:49.175Z,607.70
2022-09-16T07:54:20.194Z,621.70
2022-09-16T07:56:48.783Z,615.00
2022-09-16T07:59:19.447Z,613.55
2022-09-16T08:01:49.832Z,618.38
2022-09-16T08:04:19.803Z,619.55
2022-09-16T08:06:48.231Z,621.60
2022-09-16T08:12:06.028Z,618.42
2022-09-16T08:14:34.579Z,632.90
2022-09-16T08:17:03.511Z,631.42
2022-09-16T08:19:31.653Z,631.13
2022-09-16T08:21:59.834Z,625.72
2022-09-16T08:24:28.560Z,634.20
2022-09-16T08:29:25.995Z,631.88
2022-09-16T08:31:54.556Z,633.33
2022-09-16T08:34:22.772Z,639.55
2022-09-16T08:36:51.137Z,637.42
2022-09-16T08:39:19.991Z,646.08
2022-09-16T08:42:05.702Z,643.63
2022-09-16T08:44:43.238Z,632.10
2022-09-16T08:47:35.117Z,641.78
2022-09-16T08:50:16.245Z,638.65
2022-09-16T08:52:45.876Z,639.20
2022-09-16T08:55:37.973Z,645.00
2022-09-16T08:58:31.673Z,647.63
2022-09-16T09:01:06.827Z,665.65
2022-09-16T09:03:41.973Z,668.25
2022-09-16T09:06:55.508Z,672.78
2022-09-16T09:09:42.616Z,657.58
2022-09-16T09:12:37.516Z,679.40
2022-09-16T09:15:30.572Z,692.53
2022-09-16T09:17:58.796Z,687.85
2022-09-16T09:21:04.519Z,702.92
2022-09-16T09:23:52.537Z,702.25
2022-09-16T09:26:39.457Z,692.70
2022-09-16T09:29:20.061Z,708.55
2022-09-16T09:32:04.199Z,708.25
2022-09-16T09:35:03.762Z,735.88
2022-09-16T09:38:12.594Z,715.67
2022-09-16T09:40:54.791Z,723.20
2022-09-16T09:43:33.798Z,720.60
2022-09-16T09:46:28.044Z,726.38
2022-09-16T09:49:18.353Z,720.47
2022-09-16T09:51:53.720Z,732.08
2022-09-16T09:54:32.503Z,740.45
2022-09-16T09:57:42.118Z,750.65
2022-09-16T10:00:18.473Z,746.60
2022-09-16T10:02:49.927Z,747.17
2022-09-16T10:05:29.335Z,759.40
2022-09-16T10:08:22.947Z,764.10
2022-09-16T10:10:55.152Z,760.50
2022-09-16T10:13:25.724Z,766.92
2022-09-16T10:16:16.408Z,784.20
2022-09-16T10:18:44.880Z,792.78
2022-09-16T10:21:16.939Z,793.60
2022-09-16T10:23:57.427Z,788.28
2022-09-16T10:26:29.185Z,801.60
2022-09-16T10:29:04.049Z,805.17
2022-09-16T10:31:41.995Z,807.67
2022-09-16T10:34:38.677Z,809.25
2022-09-16T10:37:15.177Z,815.65
2022-09-16T10:39:58.662Z,825.65
2022-09-16T10:42:29.560Z,825.85
2022-09-16T10:45:16.127Z,836.45
2022-09-16T10:47:51.489Z,849.40
2022-09-16T10:50:20.583Z,856.28
2022-09-16T10:52:49.976Z,864.95
2022-09-16T10:55:26.721Z,859.95
2022-09-16T10:58:08.534Z,857.45
2022-09-16T11:00:58.227Z,860.22
2022-09-16T11:04:02.354Z,857.47
2022-09-16T11:06:55.770Z,853.15
2022-09-16T11:09:51.265Z,863.60
2022-09-16T11:12:44.437Z,870.05
2022-09-16T11:15:57.500Z,863.08
2022-09-16T11:19:12.868Z,863.20
2022-09-16T11:21:56.948Z,873.70
2022-09-16T11:24:51.015Z,866.60
2022-09-16T11:27:28.949Z,870.58
2022-09-16T11:30:12.048Z,866.20
2022-09-16T11:33:32.848Z,874.65
2022-09-16T11:36:32.300Z,851.75
2022-09-16T11:39:00.616Z,870.50
2022-09-16T11:41:41.149Z,872.15
2022-09-16T11:44:56.862Z,873.85
2022-09-16T11:47:59.660Z,887.25
2022-09-16T11:50:30.859Z,864.25
2022-09-16T11:53:17.293Z,875.88
2022-09-16T11:55:57.849Z,872.60
2022-09-16T11:58:54.694Z,874.40
2022-09-16T12:01:26.130Z,858.65
2022-09-16T12:03:55.685Z,867.80
2022-09-16T12:06:29.124Z,874.22
2022-09-16T12:08:59.086Z,872.00
2022-09-16T12:11:36.900Z,887.47
2022-09-16T12:14:24.642Z,892.50
2022-09-16T12:17:06.105Z,888.10
2022-09-16T12:19:55.689Z,888.17
2022-09-16T12:22:42.641Z,885.17
2022-09-16T12:25:28.449Z,877.80
2022-09-16T12:28:31.613Z,889.13
2022-09-16T12:31:31.377Z,869.85
2022-09-16T12:35:02.574Z,875.70
2022-09-16T12:37:53.291Z,846.17
2022-09-16T12:40:25.914Z,860.17
2022-09-16T12:43:32.175Z,853.88
2022-09-16T12:46:06.959Z,846.25
2022-09-16T12:48:45.376Z,839.42
2022-09-16T12:51:16.906Z,846.08
2022-09-16T12:54:03.083Z,847.08
2022-09-16T12:57:15.444Z,835.22
2022-09-16T13:00:08.618Z,830.90
2022-09-16T13:02:44.345Z,846.45
2022-09-16T13:05:25.557Z,862.78
2022-09-16T13:08:04.372Z,839.40
2022-09-16T13:10:53.966Z,855.58
2022-09-16T13:13:32.561Z,846.50
2022-09-16T13:16:04.576Z,850.50
2022-09-16T13:18:44.658Z,853.65
2022-09-16T13:21:28.758Z,830.95
2022-09-16T13:24:21.816Z,841.35
2022-09-16T13:26:50.111Z,835.40
2022-09-16T13:29:45.827Z,853.33
2022-09-16T13:33:05.406Z,839.15
2022-09-16T13:35:38.455Z,843.72
2022-09-16T13:38:24.257Z,837.15
2022-09-16T13:41:01.175Z,828.75
2022-09-16T13:43:29.887Z,824.50
2022-09-16T13:46:11.410Z,819.88
2022-09-16T13:48:57.068Z,817.85
2022-09-16T13:51:25.361Z,809.50
2022-09-16T13:53:54.049Z,818.80
2022-09-16T13:56:31.195Z,817.05
2022-09-16T13:59:29.727Z,800.65
2022-09-16T14:02:03.458Z,796.35
2022-09-16T14:05:10.445Z,783.80
2022-09-16T14:08:05.365Z,772.67
2022-09-16T14:10:57.608Z,767.92
2022-09-16T14:13:42.784Z,767.33
2022-09-16T14:16:24.329Z,763.45
2022-09-16T14:19:06.250Z,750.00
2022-09-16T14:21:34.693Z,744.45
2022-09-16T14:24:19.338Z,746.83
2022-09-16T14:26:55.794Z,725.42
2022-09-16T14:29:27.240Z,726.70
2022-09-16T14:31:57.098Z,735.80
2022-09-16T14:34:34.913Z,720.88
2022-09-16T14:37:04.218Z,716.15
2022-09-16T14:39:33.122Z,705.85
2022-09-16T14:42:07.379Z,712.38
2022-09-16T14:44:40.111Z,699.75
2022-09-16T14:47:29.351Z,688.42
2022-09-16T14:50:22.929Z,682.55
2022-09-16T14:52:58.389Z,675.47
2022-09-16T14:55:36.381Z,686.90
2022-09-16T14:58:04.960Z,683.08
2022-09-16T15:01:07.592Z,702.78
2022-09-16T15:03:48.962Z,680.72
2022-09-16T15:06:23.048Z,672.95
2022-09-16T15:09:12.999Z,670.30
2022-09-16T15:11:53.806Z,658.80
2022-09-16T15:14:22.434Z,673.13
2022-09-16T15:16:57.390Z,664.85
2022-09-16T15:19:50.574Z,661.55
2022-09-16T15:22:18.965Z,655.42
2022-09-16T15:24:52.934Z,639.60
2022-09-16T15:27:29.672Z,649.92
2022-09-16T15:30:01.203Z,631.47
2022-09-16T15:32:31.834Z,637.10
2022-09-16T15:35:12.515Z,652.92
2022-09-16T15:37:41.450Z,636.08
2022-09-16T15:40:26.968Z,635.20
2022-09-16T15:43:28.005Z,623.97
2022-09-16T15:46:09.296Z,609.10
2022-09-16T15:48:45.806Z,614.05
2022-09-16T15:51:33.476Z,617.55
2022-09-16T15:54:22.208Z,606.60
2022-09-16T15:57:05.853Z,607.00
2022-09-16T16:00:10.586Z,600.58
2022-09-16T16:02:49.473Z,605.38
2022-09-16T16:05:30.190Z,599.30
2022-09-16T16:08:06.282Z,590.17
2022-09-16T16:10:40.194Z,614.00
2022-09-16T16:13:08.692Z,614.65
2022-09-16T16:15:39.539Z,600.60
2022-09-16T16:18:10.800Z,610.72
2022-09-16T16:20:40.057Z,615.83
2022-09-16T16:23:12.335Z,638.97
2022-09-16T16:25:40.642Z,640.15
2022-09-16T16:28:09.012Z,635.17
2022-09-16T16:30:36.702Z,642.10
2022-09-16T16:33:07.923Z,627.00
2022-09-16T16:35:36.146Z,636.75
2022-09-16T16:38:04.286Z,625.22
2022-09-16T16:40:32.397Z,627.40
2022-09-16T16:43:00.678Z,633.35
2022-09-16T16:45:28.491Z,630.15
2022-09-16T16:47:59.033Z,614.42
2022-09-16T16:50:37.313Z,607.20
2022-09-16T16:53:06.687Z,590.65
2022-09-16T16:55:37.535Z,609.42
2022-09-16T16:58:07.507Z,593.75
2022-09-16T17:00:35.902Z,594.38
2022-09-16T17:03:04.551Z,611.67
2022-09-16T17:05:32.872Z,589.13
2022-09-16T17:08:01.109Z,588.83
2022-09-16T17:10:29.064Z,587.10
2022-09-16T17:12:56.986Z,576.08
2022-09-16T17:15:26.097Z,576.35
2022-09-16T17:17:54.410Z,575.95
2022-09-16T17:20:22.803Z,580.85
2022-09-16T17:22:50.977Z,548.50
2022-09-16T17:25:18.862Z,546.88
2022-09-16T17:27:47.482Z,541.67
2022-09-16T17:30:16.900Z,548.08
2022-09-16T17:32:45.338Z,555.95
2022-09-16T17:35:13.470Z,545.03
2022-09-16T17:37:42.384Z,536.17
2022-09-16T17:40:11.149Z,544.72
2022-09-16T17:42:39.510Z,528.75
2022-09-16T17:45:08.064Z,523.13
2022-09-16T17:47:36.241Z,527.08
2022-09-16T17:50:05.483Z,513.60
2022-09-16T17:52:33.779Z,519.15
2022-09-16T17:55:02.086Z,505.05
2022-09-16T17:57:33.154Z,502.17
2022-09-16T18:00:01.603Z,508.08
2022-09-16T18:02:29.873Z,489.88
2022-09-16T18:04:57.913Z,493.70
2022-09-16T18:07:26.156Z,495.77
2022-09-16T18:09:54.403Z,496.27
2022-09-16T18:12:22.574Z,490.65
2022-09-16T18:14:50.509Z,499.95
2022-09-16T18:17:18.854Z,488.42
2022-09-16T18:19:47.111Z,470.45
2022-09-16T18:22:14.863Z,475.83
2022-09-16T18:24:43.054Z,477.40
2022-09-16T18:27:11.936Z,484.20
2022-09-16T18:29:40.407Z,482.17
2022-09-16T18:32:09.091Z,465.83
2022-09-16T18:34:37.669Z,464.70
2022-09-16T18:37:05.967Z,470.52
2022-09-16T18:39:34.312Z,454.05
2022-09-16T18:42:02.563Z,460.30
2022-09-16T18:44:30.894Z,461.98
2022-09-16T18:47:00.043Z,454.08
2022-09-16T18:49:30.207Z,451.20
2022-09-16T18:51:58.553Z,439.67
2022-09-16T18:54:29.262Z,438.15
2022-09-16T18:57:00.298Z,443.17
2022-09-16T18:59:31.543Z,438.33
2022-09-16T19:02:03.945Z,436.00
2022-09-16T19:04:38.439Z,450.17
2022-09-16T19:07:08.558Z,456.17
2022-09-16T19:09:39.960Z,458.75
2022-09-16T19:12:13.394Z,441.33
2022-09-16T19:14:41.902Z,439.65
2022-09-16T19:17:10.590Z,447.83
2022-09-16T19:19:38.971Z,443.20
2022-09-16T19:22:07.118Z,434.77
2022-09-16T19:24:35.238Z,460.60
2022-09-16T19:27:03.776Z,439.95
2022-09-16T19:29:32.811Z,442.25
2022-09-16T19:32:01.364Z,449.75
2022-09-16T19:34:29.742Z,436.73
2022-09-16T19:36:57.925Z,446.25
2022-09-16T19:39:27.265Z,450.10
2022-09-16T19:41:55.740Z,439.10
2022-09-16T19:44:24.003Z,444.73
2022-09-16T19:46:52.494Z,540.97
2022-09-16T19:49:23.033Z,432.10
2022-09-16T19:51:53.352Z,446.77
2022-09-16T19:54:24.260Z,434.13
2022-09-16T19:56:52.664Z,439.15
2022-09-16T19:59:20.923Z,448.98
2022-09-16T20:01:49.508Z,443.52
2022-09-16T20:04:21.274Z,442.52
2022-09-16T20:06:50.129Z,440.50
2022-09-16T20:09:19.872Z,445.63
2022-09-16T20:11:49.250Z,428.52
2022-09-16T20:14:20.389Z,431.08
2022-09-16T20:16:51.957Z,432.38
2022-09-16T20:19:20.685Z,441.70
2022-09-16T20:21:49.176Z,419.90
2022-09-16T20:24:20.362Z,435.00
2022-09-16T20:26:50.712Z,427.52
2022-09-16T20:29:20.100Z,430.83
2022-09-16T20:31:50.765Z,431.70
2022-09-16T20:34:19.594Z,428.77
2022-09-16T20:36:47.789Z,435.15
2022-09-16T20:39:16.413Z,427.80
2022-09-16T20:41:45.861Z,433.98
2022-09-16T20:44:15.894Z,427.42
2022-09-16T20:46:44.707Z,428.00
2022-09-16T20:49:16.618Z,434.83
2022-09-16T20:51:45.118Z,433.75
2022-09-16T20:54:15.246Z,434.65
2022-09-16T20:56:47.243Z,444.35
2022-09-16T20:59:17.635Z,431.38
2022-09-16T21:01:46.565Z,431.90
2022-09-16T21:04:19.744Z,425.73
2022-09-16T21:06:48.102Z,432.85
2022-09-16T21:09:16.559Z,428.10
2022-09-16T21:11:45.321Z,440.52
2022-09-16T21:14:16.455Z,435.00
2022-09-16T21:16:46.133Z,431.75
2022-09-16T21:19:14.826Z,425.58
2022-09-16T21:21:46.557Z,428.88
2022-09-16T21:24:15.927Z,435.27
2022-09-16T21:26:44.415Z,430.20
2022-09-16T21:29:15.998Z,418.95
2022-09-16T21:31:44.415Z,418.85
2022-09-16T21:34:20.679Z,434.08
2022-09-16T21:36:50.223Z,441.17
2022-09-16T21:39:21.255Z,424.95
2022-09-16T21:41:49.642Z,429.08
2022-09-16T21:44:19.171Z,422.83
2022-09-16T21:46:48.152Z,419.20
2022-09-16T21:49:23.062Z,425.40
2022-09-16T21:51:57.352Z,440.50
2022-09-16T21:54:26.825Z,579.25
2022-09-16T21:56:55.245Z,430.65
2022-09-16T21:59:23.761Z,418.98
2022-09-16T22:01:52.117Z,430.33
2022-09-16T22:04:23.665Z,426.58
2022-09-16T22:06:54.853Z,419.48
2022-09-16T22:09:23.315Z,429.08
2022-09-16T22:11:51.673Z,429.95
2022-09-16T22:14:19.876Z,426.50
2022-09-16T22:16:48.124Z,421.50
2022-09-16T22:19:18.443Z,426.08
2022-09-16T22:21:50.073Z,415.55
2022-09-16T22:24:22.230Z,426.10
2022-09-16T22:26:51.569Z,426.58
2022-09-16T22:29:20.004Z,427.98
2022-09-16T22:31:48.726Z,419.88
2022-09-16T22:34:17.199Z,433.10
2022-09-16T22:36:45.566Z,438.13
2022-09-16T22:39:16.266Z,428.95
2022-09-16T22:41:45.091Z,432.05
2022-09-16T22:44:14.158Z,409.75
2022-09-16T22:46:47.556Z,420.48
2022-09-16T22:49:16.591Z,431.33
2022-09-16T22:51:45.264Z,404.25
2022-09-16T22:54:14.348Z,404.42
2022-09-16T22:56:43.955Z,409.48
2022-09-16T22:59:20.653Z,400.65
2022-09-16T23:01:49.284Z,410.48
2022-09-16T23:04:17.630Z,412.92
2022-09-16T23:06:46.824Z,405.40
2022-09-16T23:09:15.543Z,403.67
2022-09-16T23:11:43.843Z,414.67
2022-09-16T23:14:15.649Z,409.92
2022-09-16T23:16:44.047Z,407.55
2022-09-16T23:19:12.594Z,400.00
2022-09-16T23:21:41.139Z,407.33
2022-09-16T23:24:15.420Z,400.10
2022-09-16T23:26:44.651Z,414.65
2022-09-16T23:29:14.444Z,398.73
2022-09-16T23:31:44.863Z,409.85
2022-09-16T23:34:20.051Z,406.77
2022-09-16T23:36:48.965Z,405.08
2022-09-16T23:39:17.619Z,400.73
2022-09-16T23:41:46.030Z,408.60
2022-09-16T23:44:15.885Z,406.55
2022-09-16T23:46:44.944Z,389.77
2022-09-16T23:49:13.833Z,400.88
2022-09-16T23:51:42.075Z,399.55
2022-09-16T23:54:10.307Z,402.95
2022-09-16T23:56:38.918Z,410.17
2022-09-16T23:59:07.330Z,397.80
